Mission, Canada
Current Conditions -  °F | °C
As of 3:00 AM on Tuesday 21 Oct 2014 (Local Time) from CYXX Reporting Station
Light Rain Light Rain  
Wind Chill: 54°   Ceiling: 2500
Heat Index: 54°   Visibility: 8mi
Dew Point: 54°   Wind: 3mph
Humidity: 100%   Direction: 360°N
Pressure: 29.78"   Gusts: NA
Location:  49.13°N, 122.3°W
Report Text: CYXX 211000Z 36003KT 8SM -RA BKN025 OVC050 12/12 A2978 RMK SC7SC1 SLP085
Loading
Personal Weather Stations






























Interactive Weather Map New forecast layout! Learn more

10-Day Weather Forecast

Advertisements
Track Severe Weather on mobile